createdAt,value
2018-02-14T00:01:07.777Z,0.30
2018-02-14T00:03:34.095Z,0.30
2018-02-14T00:06:00.474Z,0.30
2018-02-14T00:08:26.731Z,0.30
2018-02-14T00:10:53.783Z,0.30
2018-02-14T00:13:20.742Z,0.30
2018-02-14T00:15:47.010Z,0.20
2018-02-14T00:18:13.245Z,0.20
2018-02-14T00:20:39.563Z,0.10
2018-02-14T00:23:05.828Z,0.10
2018-02-14T00:25:32.097Z,0.10
2018-02-14T00:27:58.708Z,0.10
2018-02-14T00:30:25.691Z,0.10
2018-02-14T00:32:52.050Z,0.10
2018-02-14T00:35:18.622Z,0.20
2018-02-14T00:37:44.907Z,0.10
2018-02-14T00:40:24.184Z,0.20
2018-02-14T00:42:50.506Z,0.00
2018-02-14T00:45:17.654Z,0.10
2018-02-14T00:47:45.382Z,0.10
2018-02-14T00:50:11.682Z,0.10
2018-02-14T00:52:38.681Z,0.00
2018-02-14T00:57:49.883Z,0.00
2018-02-14T01:00:17.034Z,0.00
2018-02-14T01:02:44.495Z,0.00
2018-02-14T01:05:10.742Z,0.00
2018-02-14T01:07:36.999Z,-0.10
2018-02-14T01:10:03.275Z,-0.10
2018-02-14T01:12:29.517Z,-0.10
2018-02-14T01:14:55.783Z,0.00
2018-02-14T01:17:22.039Z,0.00
2018-02-14T01:20:07.339Z,0.00
2018-02-14T01:22:33.571Z,0.00
2018-02-14T01:24:59.850Z,0.00
2018-02-14T01:27:26.077Z,0.00
2018-02-14T01:29:53.135Z,0.00
2018-02-14T01:32:19.355Z,0.00
2018-02-14T01:34:45.702Z,0.00
2018-02-14T01:37:12.389Z,0.00
2018-02-14T01:39:38.647Z,0.00
2018-02-14T01:42:04.979Z,-0.10
2018-02-14T01:44:31.220Z,0.00
2018-02-14T01:46:57.491Z,0.00
2018-02-14T01:49:23.725Z,0.00
2018-02-14T01:51:52.960Z,0.00
2018-02-14T01:54:19.702Z,0.00
2018-02-14T01:56:49.440Z,0.00
2018-02-14T01:59:15.678Z,-0.10
2018-02-14T02:01:42.395Z,-0.10
2018-02-14T02:04:08.637Z,-0.10
2018-02-14T02:06:34.872Z,-0.20
2018-02-14T02:09:01.123Z,-0.20
2018-02-14T02:11:27.397Z,-0.20
2018-02-14T02:13:53.643Z,-0.20
2018-02-14T02:16:20.218Z,-0.30
2018-02-14T02:18:47.868Z,-0.30
2018-02-14T02:21:14.874Z,-0.40
2018-02-14T02:23:41.531Z,-0.40
2018-02-14T02:26:07.818Z,-0.40
2018-02-14T02:28:34.955Z,-0.40
2018-02-14T02:31:01.958Z,-0.40
2018-02-14T02:33:28.574Z,-0.40
2018-02-14T02:35:54.883Z,-0.40
2018-02-14T02:38:21.140Z,-0.40
2018-02-14T02:40:47.375Z,-0.40
2018-02-14T02:43:13.623Z,-0.40
2018-02-14T02:45:40.507Z,-0.40
2018-02-14T02:48:06.743Z,-0.50
2018-02-14T02:50:33.022Z,-0.40
2018-02-14T02:52:59.255Z,-0.50
2018-02-14T02:55:25.520Z,-0.50
2018-02-14T02:57:52.410Z,-0.50
2018-02-14T03:00:18.718Z,-0.60
2018-02-14T03:02:45.183Z,-0.50
2018-02-14T03:05:11.443Z,-0.50
2018-02-14T03:07:39.556Z,-0.50
2018-02-14T03:10:06.778Z,-0.50
2018-02-14T03:12:33.011Z,-0.40
2018-02-14T03:14:59.279Z,-0.40
2018-02-14T03:17:26.271Z,-0.40
2018-02-14T03:19:52.487Z,-0.40
2018-02-14T03:22:18.795Z,-0.40
2018-02-14T03:24:45.767Z,-0.40
2018-02-14T03:27:12.262Z,-0.40
2018-02-14T03:29:39.375Z,-0.40
2018-02-14T03:32:05.619Z,-0.40
2018-02-14T03:34:32.359Z,-0.40
2018-02-14T03:36:58.631Z,-0.50
2018-02-14T03:39:24.858Z,-0.50
2018-02-14T03:41:51.555Z,-0.50
2018-02-14T03:44:18.171Z,-0.50
2018-02-14T03:46:46.698Z,-0.60
2018-02-14T03:49:13.939Z,-0.60
2018-02-14T03:51:40.191Z,-0.60
2018-02-14T03:54:07.914Z,-0.70
2018-02-14T03:56:34.847Z,-0.70
2018-02-14T03:59:01.143Z,-0.70
2018-02-14T04:01:27.367Z,-0.70
2018-02-14T04:03:53.627Z,-0.80
2018-02-14T04:06:19.920Z,-0.80
2018-02-14T04:08:46.184Z,-0.80
2018-02-14T04:11:12.469Z,-0.80
2018-02-14T04:13:39.084Z,-0.90
2018-02-14T04:16:05.352Z,-0.90
2018-02-14T04:18:31.595Z,-0.80
2018-02-14T04:20:57.826Z,-0.80
2018-02-14T04:23:24.124Z,-0.80
2018-02-14T04:25:50.442Z,-0.90
2018-02-14T04:28:18.554Z,-0.90
2018-02-14T04:30:45.145Z,-0.90
2018-02-14T04:33:12.551Z,-1.00
2018-02-14T04:35:38.807Z,-0.90
2018-02-14T04:38:06.090Z,-0.90
2018-02-14T04:40:32.411Z,-1.00
2018-02-14T04:42:58.675Z,-0.90
2018-02-14T04:45:24.928Z,-0.90
2018-02-14T04:47:51.174Z,-0.90
2018-02-14T04:50:17.423Z,-0.90
2018-02-14T04:52:45.055Z,-0.90
2018-02-14T04:55:11.362Z,-0.90
2018-02-14T04:57:37.600Z,-1.00
2018-02-14T05:00:03.884Z,-1.00
2018-02-14T05:02:30.865Z,-1.00
2018-02-14T05:04:57.148Z,-1.00
2018-02-14T05:07:24.395Z,-1.00
2018-02-14T05:09:50.670Z,-1.00
2018-02-14T05:12:16.944Z,-1.10
2018-02-14T05:14:43.183Z,-1.10
2018-02-14T05:17:09.590Z,-1.10
2018-02-14T05:19:35.811Z,-1.00
2018-02-14T05:22:03.074Z,-1.10
2018-02-14T05:24:29.320Z,-1.10
2018-02-14T05:26:56.363Z,-1.10
2018-02-14T05:29:22.687Z,-1.20
2018-02-14T05:31:48.939Z,-1.10
2018-02-14T05:34:15.171Z,-1.20
2018-02-14T05:36:41.495Z,-1.10
2018-02-14T05:39:10.736Z,-1.10
2018-02-14T05:41:37.727Z,-1.20
2018-02-14T05:44:03.973Z,-1.20
2018-02-14T05:46:30.213Z,-1.30
2018-02-14T05:48:57.240Z,-1.30
2018-02-14T05:51:23.491Z,-1.30
2018-02-14T05:53:49.751Z,-1.30
2018-02-14T05:56:16.011Z,-1.30
2018-02-14T05:58:45.842Z,-1.40
2018-02-14T06:01:12.088Z,-1.40
2018-02-14T06:03:38.458Z,-1.40
2018-02-14T06:06:05.551Z,-1.50
2018-02-14T06:08:31.803Z,-1.50
2018-02-14T06:10:58.145Z,-1.60
2018-02-14T06:13:24.412Z,-1.60
2018-02-14T06:15:51.414Z,-1.60
2018-02-14T06:18:17.727Z,-1.70
2018-02-14T06:20:43.991Z,-1.70
2018-02-14T06:23:10.223Z,-1.70
2018-02-14T06:25:38.342Z,-1.80
2018-02-14T06:28:04.566Z,-1.70
2018-02-14T06:30:30.823Z,-1.70
2018-02-14T06:32:57.084Z,-1.70
2018-02-14T06:35:23.351Z,-1.70
2018-02-14T06:37:49.600Z,-1.60
2018-02-14T06:40:16.595Z,-1.70
2018-02-14T06:42:42.880Z,-1.70
2018-02-14T06:45:09.122Z,-1.60
2018-02-14T06:47:35.435Z,-1.60
2018-02-14T06:50:01.684Z,-1.60
2018-02-14T06:52:28.271Z,-1.60
2018-02-14T06:54:54.597Z,-1.60
2018-02-14T06:57:20.911Z,-1.60
2018-02-14T06:59:47.705Z,-1.50
2018-02-14T07:02:14.383Z,-1.30
2018-02-14T07:04:41.869Z,-1.30
2018-02-14T07:07:09.225Z,-1.20
2018-02-14T07:09:36.256Z,-1.20
2018-02-14T07:12:02.544Z,-1.20
2018-02-14T07:14:28.855Z,-1.30
2018-02-14T07:16:55.104Z,-1.30
2018-02-14T07:19:24.455Z,-1.30
2018-02-14T07:21:54.490Z,-1.20
2018-02-14T07:24:21.847Z,-1.20
2018-02-14T07:26:48.498Z,-1.20
2018-02-14T07:29:15.862Z,-1.10
2018-02-14T07:31:43.575Z,-1.20
2018-02-14T07:34:09.943Z,-1.10
2018-02-14T07:36:36.203Z,-1.00
2018-02-14T07:39:03.238Z,-0.90
2018-02-14T07:41:32.256Z,-1.00
2018-02-14T07:43:59.625Z,-0.90
2018-02-14T07:46:26.983Z,-0.80
2018-02-14T07:48:55.222Z,-0.60
2018-02-14T07:51:21.474Z,-0.70
2018-02-14T07:53:48.446Z,-0.50
2018-02-14T07:56:14.723Z,-0.50
2018-02-14T07:58:40.974Z,-0.30
2018-02-14T08:01:08.114Z,-0.30
2018-02-14T08:03:35.095Z,-0.20
2018-02-14T08:06:02.089Z,-0.10
2018-02-14T08:08:28.451Z,-0.20
2018-02-14T08:10:55.486Z,0.00
2018-02-14T08:13:21.763Z,0.00
2018-02-14T08:15:48.107Z,0.10
2018-02-14T08:18:14.374Z,0.10
2018-02-14T08:20:40.650Z,0.10
2018-02-14T08:23:07.241Z,0.10
2018-02-14T08:25:33.546Z,0.20
2018-02-14T08:27:59.832Z,0.30
2018-02-14T08:30:26.840Z,0.60
2018-02-14T08:32:53.107Z,0.50
2018-02-14T08:35:19.459Z,0.60
2018-02-14T08:37:45.767Z,0.70
2018-02-14T08:40:12.008Z,0.70
2018-02-14T08:42:39.010Z,0.80
2018-02-14T08:45:05.298Z,0.80
2018-02-14T08:47:32.328Z,1.00
2018-02-14T08:49:59.323Z,1.00
2018-02-14T08:52:25.627Z,1.00
2018-02-14T08:54:51.875Z,1.10
2018-02-14T08:57:18.111Z,1.10
2018-02-14T08:59:44.363Z,1.20
2018-02-14T09:02:10.606Z,1.20
2018-02-14T09:04:36.868Z,1.30
2018-02-14T09:07:03.970Z,1.40
2018-02-14T09:09:30.267Z,1.40
2018-02-14T09:11:56.538Z,1.50
2018-02-14T09:14:22.803Z,1.50
2018-02-14T09:16:49.198Z,1.60
2018-02-14T09:19:15.582Z,1.80
2018-02-14T09:21:42.605Z,1.80
2018-02-14T09:24:17.764Z,1.80
2018-02-14T09:26:49.055Z,1.80
2018-02-14T09:29:16.519Z,1.90
2018-02-14T09:31:43.955Z,2.00
2018-02-14T09:34:10.315Z,2.10
2018-02-14T09:36:36.577Z,2.10
2018-02-14T09:39:02.874Z,2.20
2018-02-14T09:41:29.156Z,2.30
2018-02-14T09:43:55.432Z,2.50
2018-02-14T09:46:21.751Z,2.60
2018-02-14T09:48:48.213Z,2.60
2018-02-14T09:51:14.519Z,2.60
2018-02-14T09:53:40.797Z,2.60
2018-02-14T09:56:07.096Z,2.70
2018-02-14T09:58:33.360Z,2.60
2018-02-14T10:01:00.251Z,2.80
2018-02-14T10:03:26.515Z,2.80
2018-02-14T10:05:52.780Z,2.90
2018-02-14T10:08:19.011Z,3.00
2018-02-14T10:10:45.865Z,3.00
2018-02-14T10:13:12.159Z,3.10
2018-02-14T10:15:38.531Z,3.10
2018-02-14T10:18:05.584Z,3.30
2018-02-14T10:20:31.887Z,3.20
2018-02-14T10:22:58.180Z,3.30
2018-02-14T10:25:24.625Z,3.40
2018-02-14T10:27:50.904Z,3.40
2018-02-14T10:30:17.139Z,3.40
2018-02-14T10:32:43.536Z,3.50
2018-02-14T10:35:09.771Z,3.50
2018-02-14T10:37:36.044Z,3.70
2018-02-14T10:40:02.305Z,3.70
2018-02-14T10:42:30.459Z,3.60
2018-02-14T10:44:56.863Z,3.70
2018-02-14T10:47:23.164Z,3.80
2018-02-14T10:49:49.446Z,3.80
2018-02-14T10:52:22.113Z,3.90
2018-02-14T10:54:49.468Z,4.00
2018-02-14T10:57:16.026Z,4.00
2018-02-14T10:59:42.350Z,4.10
2018-02-14T11:02:09.631Z,4.20
2018-02-14T11:04:41.974Z,4.20
2018-02-14T11:07:14.252Z,4.20
2018-02-14T11:09:43.283Z,4.30
2018-02-14T11:12:09.850Z,4.30
2018-02-14T11:14:36.146Z,4.40
2018-02-14T11:17:03.270Z,4.70
2018-02-14T11:19:29.535Z,4.60
2018-02-14T11:21:55.929Z,4.80
2018-02-14T11:24:22.153Z,4.90
2018-02-14T11:26:48.520Z,5.00
2018-02-14T11:29:14.771Z,5.00
2018-02-14T11:31:41.150Z,5.00
2018-02-14T11:34:07.471Z,5.10
2018-02-14T11:36:33.786Z,5.10
2018-02-14T11:39:00.029Z,5.10
2018-02-14T11:41:26.431Z,5.20
2018-02-14T11:43:52.675Z,5.30
2018-02-14T11:46:19.363Z,5.40
2018-02-14T11:48:45.619Z,5.50
2018-02-14T11:51:12.612Z,5.60
2018-02-14T11:53:38.860Z,5.50
2018-02-14T11:56:05.185Z,5.50
2018-02-14T11:58:31.448Z,5.60
2018-02-14T12:00:58.446Z,5.80
2018-02-14T12:03:25.051Z,5.80
2018-02-14T12:05:51.283Z,5.80
2018-02-14T12:08:17.794Z,5.80
2018-02-14T12:10:44.027Z,5.90
2018-02-14T12:13:11.395Z,6.10
2018-02-14T12:15:37.695Z,6.10
2018-02-14T12:18:08.441Z,6.20
2018-02-14T12:20:34.833Z,6.10
2018-02-14T12:23:01.104Z,6.20
2018-02-14T12:25:27.387Z,6.30
2018-02-14T12:27:53.692Z,6.40
2018-02-14T12:30:20.682Z,6.50
2018-02-14T12:32:46.952Z,6.40
2018-02-14T12:35:13.331Z,6.60
2018-02-14T12:37:39.583Z,6.70
2018-02-14T12:40:05.866Z,6.90
2018-02-14T12:42:32.859Z,6.60
2018-02-14T12:44:59.146Z,6.60
2018-02-14T12:47:26.171Z,6.70
2018-02-14T12:49:52.415Z,6.70
2018-02-14T12:52:18.643Z,6.70
2018-02-14T12:54:45.011Z,6.90
2018-02-14T12:57:11.284Z,7.10
2018-02-14T12:59:37.554Z,7.30
2018-02-14T13:02:04.542Z,7.50
2018-02-14T13:04:31.017Z,7.50
2018-02-14T13:06:57.283Z,7.50
2018-02-14T13:09:23.867Z,7.40
2018-02-14T13:11:50.120Z,7.50
2018-02-14T13:14:17.219Z,7.40
2018-02-14T13:16:43.543Z,7.40
2018-02-14T13:19:09.908Z,7.40
2018-02-14T13:21:36.172Z,7.40
2018-02-14T13:24:02.535Z,7.70
2018-02-14T13:26:28.787Z,7.80
2018-02-14T13:28:55.151Z,7.90
2018-02-14T13:31:21.425Z,8.00
2018-02-14T13:33:47.756Z,8.00
2018-02-14T13:36:14.740Z,8.00
2018-02-14T13:38:40.984Z,8.00
2018-02-14T13:41:07.247Z,8.00
2018-02-14T13:43:34.239Z,7.90
2018-02-14T13:46:00.515Z,7.80
2018-02-14T13:48:26.747Z,7.80
2018-02-14T13:50:53.007Z,7.90
2018-02-14T13:53:19.324Z,8.00
2018-02-14T13:55:45.603Z,8.10
2018-02-14T13:58:11.840Z,8.10
2018-02-14T14:00:38.103Z,8.10
2018-02-14T14:03:04.363Z,8.00
2018-02-14T14:05:30.617Z,8.30
2018-02-14T14:07:56.872Z,8.50
2018-02-14T14:10:23.127Z,8.60
2018-02-14T14:12:49.536Z,8.80
2018-02-14T14:15:15.789Z,8.70
2018-02-14T14:17:42.083Z,8.60
2018-02-14T14:20:08.309Z,8.70
2018-02-14T14:22:34.833Z,8.60
2018-02-14T14:25:01.155Z,8.90
2018-02-14T14:27:27.796Z,9.20
2018-02-14T14:29:54.059Z,9.00
2018-02-14T14:32:20.675Z,9.20
2018-02-14T14:34:47.646Z,9.10
2018-02-14T14:37:13.887Z,9.10
2018-02-14T14:39:40.151Z,9.10
2018-02-14T14:42:06.428Z,9.10
2018-02-14T14:44:32.886Z,9.30
2018-02-14T14:46:59.126Z,9.60
2018-02-14T14:49:25.386Z,9.80
2018-02-14T14:51:52.379Z,10.30
2018-02-14T14:54:18.802Z,10.30
2018-02-14T14:56:45.043Z,10.90
2018-02-14T14:59:11.475Z,11.60
2018-02-14T15:01:37.731Z,13.10
2018-02-14T15:04:04.266Z,14.90
2018-02-14T15:06:30.526Z,15.30
2018-02-14T15:08:56.849Z,15.60
2018-02-14T15:11:23.111Z,16.20
2018-02-14T15:13:49.380Z,16.60
2018-02-14T15:16:15.630Z,17.20
2018-02-14T15:18:41.880Z,17.40
2018-02-14T15:21:09.202Z,17.00
2018-02-14T15:23:35.461Z,16.60
2018-02-14T15:26:02.376Z,16.30
2018-02-14T15:28:28.819Z,16.90
2018-02-14T15:30:55.084Z,16.60
2018-02-14T15:33:21.528Z,16.30
2018-02-14T15:35:48.667Z,14.00
2018-02-14T15:38:15.675Z,14.80
2018-02-14T15:40:41.955Z,14.80
2018-02-14T15:43:08.216Z,15.50
2018-02-14T15:45:34.463Z,16.20
2018-02-14T15:48:00.771Z,16.50
2018-02-14T15:50:27.048Z,15.40
2018-02-14T15:52:53.323Z,13.60
2018-02-14T15:55:19.591Z,11.90
2018-02-14T15:57:45.894Z,11.20
2018-02-14T16:00:12.140Z,11.50
2018-02-14T16:02:39.260Z,11.20
2018-02-14T16:05:05.558Z,11.20
2018-02-14T16:07:31.970Z,10.50
2018-02-14T16:09:58.283Z,9.60
2018-02-14T16:12:24.547Z,8.90
2018-02-14T16:14:50.790Z,8.50
2018-02-14T16:17:17.051Z,7.70
2018-02-14T16:19:44.071Z,6.90
2018-02-14T16:22:10.319Z,6.90
2018-02-14T16:24:36.587Z,6.60
2018-02-14T16:27:02.843Z,6.30
2018-02-14T16:29:29.886Z,5.90
2018-02-14T16:31:56.161Z,5.90
2018-02-14T16:34:22.418Z,5.70
2018-02-14T16:36:48.655Z,5.50
2018-02-14T16:39:14.959Z,5.30
2018-02-14T16:41:41.617Z,5.20
2018-02-14T16:44:07.903Z,5.00
2018-02-14T16:46:34.171Z,4.90
2018-02-14T16:49:00.467Z,4.80
2018-02-14T16:51:27.375Z,4.70
2018-02-14T16:53:53.958Z,4.60
2018-02-14T16:56:20.211Z,4.60
2018-02-14T16:58:47.234Z,4.30
2018-02-14T17:01:13.495Z,4.30
2018-02-14T17:03:40.658Z,4.30
2018-02-14T17:06:06.909Z,4.20
2018-02-14T17:08:33.159Z,4.40
2018-02-14T17:10:59.461Z,4.40
2018-02-14T17:13:25.834Z,4.30
2018-02-14T17:15:52.511Z,4.20
2018-02-14T17:18:18.906Z,4.10
2018-02-14T17:20:46.951Z,4.10
2018-02-14T17:23:13.487Z,4.00
2018-02-14T17:25:40.962Z,4.00
2018-02-14T17:28:07.399Z,4.00
2018-02-14T17:30:33.645Z,4.00
2018-02-14T17:32:59.995Z,4.00
2018-02-14T17:35:27.071Z,3.90
2018-02-14T17:37:54.353Z,3.90
2018-02-14T17:40:20.611Z,3.80
2018-02-14T17:42:46.912Z,3.80
2018-02-14T17:45:13.164Z,3.80
2018-02-14T17:47:40.260Z,3.80
2018-02-14T17:50:06.543Z,3.70
2018-02-14T17:52:32.844Z,3.80
2018-02-14T17:54:59.184Z,3.80
2018-02-14T17:57:25.732Z,3.70
2018-02-14T17:59:51.983Z,3.70
2018-02-14T18:02:18.272Z,3.70
2018-02-14T18:04:44.550Z,3.60
2018-02-14T18:07:10.863Z,3.70
2018-02-14T18:09:37.372Z,3.60
2018-02-14T18:12:04.186Z,3.60
2018-02-14T18:14:38.329Z,3.50
2018-02-14T18:17:07.448Z,3.50
2018-02-14T18:19:34.575Z,3.50
2018-02-14T18:22:01.358Z,3.40
2018-02-14T18:24:27.674Z,3.40
2018-02-14T18:26:54.003Z,3.40
2018-02-14T18:29:20.998Z,3.40
2018-02-14T18:31:47.264Z,3.40
2018-02-14T18:34:13.667Z,3.40
2018-02-14T18:36:40.505Z,3.40
2018-02-14T18:39:06.765Z,3.50
2018-02-14T18:41:33.137Z,3.40
2018-02-14T18:43:59.394Z,3.40
2018-02-14T18:46:25.655Z,3.40
2018-02-14T18:48:51.894Z,3.40
2018-02-14T18:51:18.316Z,3.40
2018-02-14T18:53:44.558Z,3.40
2018-02-14T18:56:10.834Z,3.50
2018-02-14T18:58:37.087Z,3.40
2018-02-14T19:01:03.371Z,3.40
2018-02-14T19:03:30.363Z,3.40
2018-02-14T19:05:56.705Z,3.40
2018-02-14T19:08:22.967Z,3.50
2018-02-14T19:10:49.185Z,3.50
2018-02-14T19:13:15.464Z,3.40
2018-02-14T19:15:41.775Z,3.50
2018-02-14T19:18:08.835Z,3.40
2018-02-14T19:20:35.071Z,3.40
2018-02-14T19:23:01.339Z,3.40
2018-02-14T19:25:27.634Z,3.40
2018-02-14T19:27:53.910Z,3.50
2018-02-14T19:30:20.165Z,3.50
2018-02-14T19:32:46.535Z,3.50
2018-02-14T19:35:12.798Z,3.50
2018-02-14T19:37:39.031Z,3.40
2018-02-14T19:40:05.290Z,3.40
2018-02-14T19:42:32.096Z,3.40
2018-02-14T19:44:58.358Z,3.40
2018-02-14T19:47:24.604Z,3.40
2018-02-14T19:49:50.863Z,3.50
2018-02-14T19:55:15.167Z,3.40
2018-02-14T19:57:41.406Z,3.40
2018-02-14T20:00:07.708Z,3.30
2018-02-14T20:02:33.943Z,3.30
2018-02-14T20:05:00.203Z,3.40
2018-02-14T20:07:26.567Z,3.40
2018-02-14T20:09:52.895Z,3.30
2018-02-14T20:12:19.134Z,3.30
2018-02-14T20:14:45.386Z,3.20
2018-02-14T20:17:11.650Z,3.20
2018-02-14T20:19:38.303Z,3.20
2018-02-14T20:22:04.581Z,3.10
2018-02-14T20:24:30.831Z,3.10
2018-02-14T20:26:57.140Z,3.10
2018-02-14T20:29:23.382Z,3.10
2018-02-14T20:31:50.394Z,3.10
2018-02-14T20:34:16.682Z,3.00
2018-02-14T20:36:42.995Z,3.00
2018-02-14T20:39:09.263Z,3.00
2018-02-14T20:41:35.504Z,3.10
2018-02-14T20:44:01.781Z,3.00
2018-02-14T20:46:28.990Z,3.00
2018-02-14T20:48:55.718Z,3.10
2018-02-14T20:51:22.485Z,3.10
2018-02-14T20:53:50.554Z,3.00
2018-02-14T20:56:16.871Z,3.00
2018-02-14T20:58:43.628Z,3.10
2018-02-14T21:01:09.902Z,3.10
2018-02-14T21:03:36.631Z,3.10
2018-02-14T21:06:02.920Z,3.10
2018-02-14T21:08:29.231Z,3.10
2018-02-14T21:10:55.982Z,3.20
2018-02-14T21:13:22.551Z,3.20
2018-02-14T21:15:48.855Z,3.20
2018-02-14T21:18:15.613Z,3.20
2018-02-14T21:20:41.870Z,3.10
2018-02-14T21:23:10.078Z,3.00
2018-02-14T21:25:37.273Z,3.00
2018-02-14T21:28:03.567Z,3.10
2018-02-14T21:30:30.692Z,3.10
2018-02-14T21:32:57.032Z,3.20
2018-02-14T21:35:23.427Z,3.20
2018-02-14T21:37:50.074Z,3.20
2018-02-14T21:40:25.943Z,3.20
2018-02-14T21:42:53.513Z,3.20
2018-02-14T21:45:20.404Z,3.20
2018-02-14T21:47:46.638Z,3.30
2018-02-14T21:50:13.162Z,3.20
2018-02-14T21:52:39.456Z,3.20
2018-02-14T21:55:05.694Z,3.20
2018-02-14T21:57:33.485Z,3.30
2018-02-14T22:00:00.344Z,3.30
2018-02-14T22:02:28.058Z,3.30
2018-02-14T22:04:54.830Z,3.30
2018-02-14T22:07:21.092Z,3.30
2018-02-14T22:09:47.319Z,3.20
2018-02-14T22:12:13.660Z,3.20
2018-02-14T22:14:39.928Z,3.30
2018-02-14T22:17:06.619Z,3.30
2018-02-14T22:19:32.911Z,3.30
2018-02-14T22:22:01.589Z,3.20
2018-02-14T22:24:28.035Z,3.20
2018-02-14T22:26:54.717Z,3.20
2018-02-14T22:29:23.363Z,3.20
2018-02-14T22:31:49.924Z,3.30
2018-02-14T22:34:16.674Z,3.30
2018-02-14T22:36:42.966Z,3.30
2018-02-14T22:39:09.422Z,3.30
2018-02-14T22:41:35.760Z,3.30
2018-02-14T22:44:02.031Z,3.40
2018-02-14T22:46:28.320Z,3.30
2018-02-14T22:48:54.791Z,3.40
2018-02-14T22:51:21.052Z,3.40
2018-02-14T22:53:48.115Z,3.40
2018-02-14T22:56:16.822Z,3.40
2018-02-14T22:58:43.081Z,3.30
2018-02-14T23:01:10.119Z,3.40
2018-02-14T23:03:36.813Z,3.40
2018-02-14T23:06:03.083Z,3.40
2018-02-14T23:08:29.330Z,3.40
2018-02-14T23:10:55.880Z,3.40
2018-02-14T23:13:22.638Z,3.40
2018-02-14T23:15:50.067Z,3.40
2018-02-14T23:18:16.343Z,3.40
2018-02-14T23:20:42.731Z,3.40
2018-02-14T23:23:08.982Z,3.40
2018-02-14T23:25:36.004Z,3.50
2018-02-14T23:28:02.288Z,3.50
2018-02-14T23:30:28.539Z,3.50
2018-02-14T23:32:54.847Z,3.50
2018-02-14T23:35:21.228Z,3.50
2018-02-14T23:37:47.488Z,3.50
2018-02-14T23:40:14.480Z,3.50
2018-02-14T23:42:40.747Z,3.50
2018-02-14T23:45:07.987Z,3.40
2018-02-14T23:47:35.170Z,3.50
2018-02-14T23:50:01.444Z,3.50
2018-02-14T23:52:27.828Z,3.40
2018-02-14T23:54:54.838Z,3.40
2018-02-14T23:57:23.153Z,3.40
2018-02-14T23:59:50.499Z,3.40
